createdAt,value
2018-09-06T00:01:02.254Z,36.93
2018-09-06T00:03:30.653Z,34.70
2018-09-06T00:05:59.066Z,35.77
2018-09-06T00:08:27.577Z,38.27
2018-09-06T00:10:55.987Z,34.83
2018-09-06T00:13:24.441Z,37.17
2018-09-06T00:15:52.908Z,37.30
2018-09-06T00:18:21.304Z,35.50
2018-09-06T00:20:49.718Z,42.50
2018-09-06T00:23:18.125Z,39.03
2018-09-06T00:25:46.553Z,42.40
2018-09-06T00:28:14.936Z,38.27
2018-09-06T00:30:43.380Z,38.17
2018-09-06T00:33:11.767Z,42.90
2018-09-06T00:35:40.406Z,41.03
2018-09-06T00:38:08.821Z,39.47
2018-09-06T00:40:37.273Z,40.00
2018-09-06T00:43:05.726Z,38.53
2018-09-06T00:45:34.391Z,43.10
2018-09-06T00:48:02.826Z,43.97
2018-09-06T00:50:37.904Z,43.87
2018-09-06T00:53:06.610Z,38.33
2018-09-06T00:55:35.683Z,39.37
2018-09-06T00:58:04.121Z,43.20
2018-09-06T01:00:32.517Z,39.37
2018-09-06T01:03:00.927Z,38.27
2018-09-06T01:05:29.616Z,38.80
2018-09-06T01:07:58.000Z,40.30
2018-09-06T01:10:26.496Z,39.90
2018-09-06T01:12:54.920Z,38.90
2018-09-06T01:15:24.419Z,39.47
2018-09-06T01:17:52.839Z,47.30
2018-09-06T01:20:21.336Z,46.13
2018-09-06T01:22:49.764Z,39.77
2018-09-06T01:25:18.153Z,37.83
2018-09-06T01:27:46.572Z,41.60
2018-09-06T01:30:14.952Z,43.30
2018-09-06T01:32:43.496Z,43.73
2018-09-06T01:35:11.893Z,43.13
2018-09-06T01:37:40.364Z,40.57
2018-09-06T01:40:08.769Z,46.10
2018-09-06T01:42:37.192Z,42.10
2018-09-06T01:45:05.982Z,44.23
2018-09-06T01:47:34.386Z,38.53
2018-09-06T01:50:02.868Z,44.67
2018-09-06T01:52:31.271Z,41.03
2018-09-06T01:54:59.721Z,42.20
2018-09-06T01:57:28.166Z,40.87
2018-09-06T01:59:56.629Z,43.87
2018-09-06T02:02:25.093Z,44.53
2018-09-06T02:04:53.464Z,48.57
2018-09-06T02:07:21.884Z,44.47
2018-09-06T02:09:50.532Z,48.30
2018-09-06T02:12:18.935Z,47.80
2018-09-06T02:14:47.317Z,44.93
2018-09-06T02:17:15.832Z,45.70
2018-09-06T02:19:44.313Z,50.43
2018-09-06T02:22:12.725Z,47.97
2018-09-06T02:24:41.127Z,51.77
2018-09-06T02:27:09.533Z,48.27
2018-09-06T02:29:37.968Z,50.43
2018-09-06T02:32:06.412Z,52.97
2018-09-06T02:34:34.792Z,52.57
2018-09-06T02:37:03.199Z,52.13
2018-09-06T02:39:31.639Z,53.10
2018-09-06T02:42:00.047Z,51.57
2018-09-06T02:44:28.464Z,49.67
2018-09-06T02:46:56.867Z,55.63
2018-09-06T02:49:30.680Z,55.13
2018-09-06T02:51:59.076Z,55.13
2018-09-06T02:54:27.508Z,59.43
2018-09-06T02:56:56.005Z,60.40
2018-09-06T02:59:25.163Z,57.77
2018-09-06T03:01:53.572Z,59.23
2018-09-06T03:04:21.985Z,62.50
2018-09-06T03:06:50.383Z,61.13
2018-09-06T03:09:21.212Z,56.57
2018-09-06T03:11:51.320Z,57.00
2018-09-06T03:14:19.788Z,56.23
2018-09-06T03:16:48.228Z,62.03
2018-09-06T03:19:16.672Z,60.80
2018-09-06T03:21:45.112Z,56.10
2018-09-06T03:24:13.585Z,63.97
2018-09-06T03:26:41.989Z,57.30
2018-09-06T03:29:10.430Z,59.40
2018-09-06T03:31:38.807Z,65.23
2018-09-06T03:34:07.207Z,64.90
2018-09-06T03:36:35.621Z,68.50
2018-09-06T03:39:05.585Z,66.70
2018-09-06T03:41:34.055Z,67.07
2018-09-06T03:44:02.877Z,60.43
2018-09-06T03:46:31.552Z,58.23
2018-09-06T03:48:59.946Z,50.27
2018-09-06T03:51:28.341Z,58.67
2018-09-06T03:53:56.768Z,53.97
2018-09-06T03:56:25.148Z,61.80
2018-09-06T03:58:53.556Z,55.37
2018-09-06T04:01:21.948Z,56.00
2018-09-06T04:03:50.341Z,50.80
2018-09-06T04:06:18.743Z,51.77
2018-09-06T04:08:47.125Z,52.60
2018-09-06T04:11:15.541Z,56.73
2018-09-06T04:13:44.052Z,56.30
2018-09-06T04:16:12.447Z,52.57
2018-09-06T04:18:40.840Z,60.30
2018-09-06T04:21:09.250Z,62.70
2018-09-06T04:23:37.805Z,61.00
2018-09-06T04:26:06.280Z,60.33
2018-09-06T04:28:35.077Z,59.90
2018-09-06T04:31:03.482Z,57.60
2018-09-06T04:33:31.866Z,62.77
2018-09-06T04:36:00.275Z,66.23
2018-09-06T04:38:29.397Z,63.07
2018-09-06T04:40:57.803Z,60.53
2018-09-06T04:43:26.187Z,60.57
2018-09-06T04:45:54.618Z,65.27
2018-09-06T04:48:23.031Z,66.63
2018-09-06T04:50:51.425Z,59.50
2018-09-06T04:53:19.819Z,53.73
2018-09-06T04:55:48.227Z,51.07
2018-09-06T04:58:16.849Z,47.03
2018-09-06T05:00:45.316Z,42.50
2018-09-06T05:03:13.817Z,44.03
2018-09-06T05:05:42.502Z,36.67
2018-09-06T05:08:10.924Z,39.70
2018-09-06T05:10:39.352Z,34.43
2018-09-06T05:13:07.741Z,30.90
2018-09-06T05:15:36.187Z,24.43
2018-09-06T05:18:05.032Z,27.80
2018-09-06T05:20:33.477Z,25.90
2018-09-06T05:23:02.468Z,28.27
2018-09-06T05:25:30.861Z,24.17
2018-09-06T05:27:59.252Z,26.40
2018-09-06T05:30:27.645Z,29.57
2018-09-06T05:32:56.056Z,24.97
2018-09-06T05:35:24.453Z,23.17
2018-09-06T05:37:52.892Z,27.43
2018-09-06T05:40:21.313Z,26.60
2018-09-06T05:42:49.958Z,26.27
2018-09-06T05:45:18.384Z,29.87
2018-09-06T05:47:51.020Z,26.53
2018-09-06T05:50:19.430Z,30.10
2018-09-06T05:52:48.107Z,32.53
2018-09-06T05:55:16.568Z,32.77
2018-09-06T05:57:44.989Z,31.43
2018-09-06T06:00:18.928Z,34.93
2018-09-06T06:02:47.721Z,48.83
2018-09-06T06:05:16.179Z,39.40
2018-09-06T06:07:55.884Z,43.27
2018-09-06T06:10:24.282Z,55.63
2018-09-06T06:12:52.974Z,53.90
2018-09-06T06:15:21.460Z,59.23
2018-09-06T06:17:49.887Z,71.43
2018-09-06T06:20:18.313Z,49.57
2018-09-06T06:22:46.724Z,45.67
2018-09-06T06:25:15.176Z,52.53
2018-09-06T06:27:43.751Z,41.73
2018-09-06T06:30:12.172Z,47.37
2018-09-06T06:32:40.636Z,47.33
2018-09-06T06:35:09.053Z,57.00
2018-09-06T06:37:37.465Z,53.73
2018-09-06T06:40:05.896Z,56.23
2018-09-06T06:42:34.322Z,42.03
2018-09-06T06:45:02.817Z,44.93
2018-09-06T06:47:31.340Z,44.57
2018-09-06T06:49:59.777Z,42.07
2018-09-06T06:52:28.173Z,50.80
2018-09-06T06:54:57.800Z,48.33
2018-09-06T06:57:28.458Z,49.07
2018-09-06T06:59:56.920Z,56.07
2018-09-06T07:02:25.363Z,50.57
2018-09-06T07:04:54.245Z,49.33
2018-09-06T07:07:22.737Z,53.87
2018-09-06T07:09:51.368Z,56.70
2018-09-06T07:12:19.769Z,58.07
2018-09-06T07:14:48.190Z,51.43
2018-09-06T07:17:19.575Z,54.60
2018-09-06T07:19:49.550Z,61.73
2018-09-06T07:22:18.021Z,55.63
2018-09-06T07:24:46.524Z,53.93
2018-09-06T07:27:14.935Z,57.77
2018-09-06T07:29:43.348Z,57.50
2018-09-06T07:32:12.056Z,56.77
2018-09-06T07:34:40.494Z,69.83
2018-09-06T07:37:09.061Z,62.50
2018-09-06T07:39:37.852Z,52.83
2018-09-06T07:42:09.898Z,49.07
2018-09-06T07:44:40.776Z,44.97
2018-09-06T07:47:13.314Z,56.40
2018-09-06T07:49:44.372Z,49.00
2018-09-06T07:52:12.872Z,51.63
2018-09-06T07:54:41.273Z,44.20
2018-09-06T07:57:09.748Z,47.83
2018-09-06T07:59:38.160Z,49.87
2018-09-06T08:02:06.621Z,41.80
2018-09-06T08:04:35.083Z,39.70
2018-09-06T08:07:03.477Z,39.27
2018-09-06T08:09:31.880Z,46.33
2018-09-06T08:12:00.374Z,42.57
2018-09-06T08:14:28.740Z,41.23
2018-09-06T08:16:57.203Z,49.17
2018-09-06T08:19:25.794Z,43.47
2018-09-06T08:21:54.455Z,41.13
2018-09-06T08:24:23.036Z,45.03
2018-09-06T08:26:51.647Z,47.37
2018-09-06T08:29:20.056Z,42.07
2018-09-06T08:31:48.485Z,44.87
2018-09-06T08:34:17.067Z,51.03
2018-09-06T08:36:45.567Z,57.73
2018-09-06T08:39:13.965Z,51.10
2018-09-06T08:41:42.364Z,49.53
2018-09-06T08:44:10.782Z,53.90
2018-09-06T08:46:39.185Z,57.00
2018-09-06T08:49:07.605Z,52.80
2018-09-06T08:51:36.028Z,54.07
2018-09-06T08:54:04.437Z,47.10
2018-09-06T08:56:32.829Z,51.80
2018-09-06T08:59:01.253Z,47.03
2018-09-06T09:01:34.934Z,45.93
2018-09-06T09:04:03.373Z,47.07
2018-09-06T09:06:31.859Z,43.10
2018-09-06T09:09:00.281Z,35.77
2018-09-06T09:11:28.763Z,33.73
2018-09-06T09:13:57.313Z,37.03
2018-09-06T09:16:25.795Z,34.73
2018-09-06T09:18:54.209Z,28.53
2018-09-06T09:21:22.772Z,30.93
2018-09-06T09:23:51.189Z,25.60
2018-09-06T09:26:19.564Z,25.20
2018-09-06T09:28:48.036Z,27.17
2018-09-06T09:31:16.506Z,30.30
2018-09-06T09:33:45.613Z,23.90
2018-09-06T09:36:14.046Z,24.43
2018-09-06T09:38:42.472Z,23.70
2018-09-06T09:41:11.159Z,22.20
2018-09-06T09:43:39.582Z,22.00
2018-09-06T09:48:35.635Z,19.90
2018-09-06T09:51:04.058Z,17.97
2018-09-06T09:53:32.547Z,19.57
2018-09-06T09:56:00.934Z,19.53
2018-09-06T09:58:29.589Z,23.13
2018-09-06T10:00:57.974Z,21.77
2018-09-06T10:03:31.714Z,22.20
2018-09-06T10:06:05.628Z,23.60
2018-09-06T10:08:39.209Z,23.73
2018-09-06T10:11:07.586Z,25.87
2018-09-06T10:13:36.048Z,25.77
2018-09-06T10:16:04.544Z,26.27
2018-09-06T10:18:33.076Z,24.37
2018-09-06T10:21:01.512Z,24.40
2018-09-06T10:23:29.952Z,24.30
2018-09-06T10:25:58.398Z,21.57
2018-09-06T10:28:26.904Z,25.37
2018-09-06T10:30:55.394Z,24.30
2018-09-06T10:33:23.972Z,22.03
2018-09-06T10:35:52.418Z,25.40
2018-09-06T10:38:20.923Z,27.27
2018-09-06T10:40:49.325Z,29.17
2018-09-06T10:43:17.736Z,27.20
2018-09-06T10:45:46.172Z,33.70
2018-09-06T10:48:14.605Z,33.27
2018-09-06T10:50:43.073Z,35.77
2018-09-06T10:53:11.636Z,30.53
2018-09-06T10:55:40.104Z,34.90
2018-09-06T10:58:08.510Z,37.43
2018-09-06T11:00:36.966Z,31.43
2018-09-06T11:03:05.462Z,34.97
2018-09-06T11:05:34.012Z,32.70
2018-09-06T11:08:02.601Z,34.03
2018-09-06T11:10:31.072Z,36.03
2018-09-06T11:12:59.461Z,38.27
2018-09-06T11:15:27.957Z,42.20
2018-09-06T11:17:56.363Z,42.83
2018-09-06T11:20:24.755Z,42.33
2018-09-06T11:22:53.132Z,36.67
2018-09-06T11:25:21.632Z,42.90
2018-09-06T11:27:50.551Z,43.77
2018-09-06T11:30:18.992Z,41.60
2018-09-06T11:32:47.452Z,42.03
2018-09-06T11:35:16.009Z,40.10
2018-09-06T11:37:44.464Z,43.93
2018-09-06T11:40:12.998Z,44.33
2018-09-06T11:42:41.340Z,43.17
2018-09-06T11:45:09.763Z,47.43
2018-09-06T11:47:38.240Z,47.70
2018-09-06T11:50:06.671Z,47.33
2018-09-06T11:52:35.168Z,49.40
2018-09-06T11:55:03.729Z,48.23
2018-09-06T11:57:32.275Z,46.70
2018-09-06T12:00:00.724Z,41.27
2018-09-06T12:02:29.599Z,39.57
2018-09-06T12:04:58.076Z,43.20
2018-09-06T12:07:26.527Z,37.60
2018-09-06T12:09:55.117Z,38.53
2018-09-06T12:12:23.612Z,36.83
2018-09-06T12:14:52.169Z,38.63
2018-09-06T12:17:20.652Z,33.23
2018-09-06T12:19:49.291Z,29.60
2018-09-06T12:22:17.856Z,31.93
2018-09-06T12:24:46.519Z,32.93
2018-09-06T12:27:14.932Z,30.77
2018-09-06T12:29:43.616Z,29.90
2018-09-06T12:32:12.080Z,31.03
2018-09-06T12:34:40.509Z,30.00
2018-09-06T12:37:13.984Z,31.70
2018-09-06T12:39:44.205Z,29.50
2018-09-06T12:42:12.867Z,30.70
2018-09-06T12:44:41.994Z,29.40
2018-09-06T12:47:10.590Z,29.93
2018-09-06T12:49:39.441Z,31.47
2018-09-06T12:52:07.841Z,31.73
2018-09-06T12:54:36.547Z,30.07
2018-09-06T12:57:05.080Z,32.63
2018-09-06T12:59:33.535Z,32.50
2018-09-06T13:02:02.360Z,33.07
2018-09-06T13:04:30.770Z,32.57
2018-09-06T13:06:59.186Z,38.17
2018-09-06T13:09:27.596Z,38.73
2018-09-06T13:11:56.013Z,38.73
2018-09-06T13:14:24.688Z,39.30
2018-09-06T13:16:53.166Z,37.73
2018-09-06T13:19:21.620Z,39.50
2018-09-06T13:21:50.032Z,38.03
2018-09-06T13:24:18.710Z,39.60
2018-09-06T13:26:47.594Z,36.93
2018-09-06T13:29:16.144Z,40.13
2018-09-06T13:31:44.600Z,37.40
2018-09-06T13:34:13.032Z,38.67
2018-09-06T13:36:41.462Z,38.63
2018-09-06T13:39:10.731Z,37.90
2018-09-06T13:41:39.149Z,37.40
2018-09-06T13:44:07.572Z,37.33
2018-09-06T13:46:36.200Z,41.43
2018-09-06T13:49:04.636Z,35.73
2018-09-06T13:51:33.086Z,40.77
2018-09-06T13:54:01.524Z,37.70
2018-09-06T13:56:29.952Z,46.43
2018-09-06T13:58:58.548Z,40.97
2018-09-06T14:01:26.971Z,37.13
2018-09-06T14:03:55.415Z,42.13
2018-09-06T14:06:23.888Z,46.00
2018-09-06T14:08:52.320Z,41.37
2018-09-06T14:11:20.743Z,42.63
2018-09-06T14:13:49.175Z,40.60
2018-09-06T14:16:17.650Z,45.60
2018-09-06T14:18:46.059Z,43.80
2018-09-06T14:21:14.499Z,44.43
2018-09-06T14:23:43.007Z,45.80
2018-09-06T14:26:11.549Z,36.80
2018-09-06T14:28:40.705Z,40.27
2018-09-06T14:31:09.216Z,39.10
2018-09-06T14:33:37.649Z,37.93
2018-09-06T14:36:06.194Z,37.90
2018-09-06T14:38:34.677Z,35.40
2018-09-06T14:41:03.260Z,41.30
2018-09-06T14:43:31.841Z,37.00
2018-09-06T14:46:00.320Z,36.33
2018-09-06T14:48:28.941Z,39.10
2018-09-06T14:50:57.397Z,40.40
2018-09-06T14:53:25.790Z,42.03
2018-09-06T14:55:54.247Z,40.37
2018-09-06T14:58:22.843Z,49.37
2018-09-06T15:00:51.283Z,45.17
2018-09-06T15:03:19.735Z,44.60
2018-09-06T15:05:48.204Z,41.47
2018-09-06T15:08:16.725Z,45.70
2018-09-06T15:10:45.145Z,40.87
2018-09-06T15:13:13.660Z,43.80
2018-09-06T15:15:42.130Z,40.07
2018-09-06T15:18:10.620Z,41.97
2018-09-06T15:20:39.288Z,40.83
2018-09-06T15:23:07.774Z,47.80
2018-09-06T15:25:36.281Z,45.20
2018-09-06T15:28:04.926Z,45.87
2018-09-06T15:30:33.383Z,44.93
2018-09-06T15:33:01.951Z,43.90
2018-09-06T15:35:30.529Z,43.33
2018-09-06T15:37:59.030Z,49.63
2018-09-06T15:40:27.598Z,52.17
2018-09-06T15:42:56.146Z,79.50
2018-09-06T15:45:24.578Z,57.47
2018-09-06T15:47:53.312Z,55.63
2018-09-06T15:50:21.860Z,57.70
2018-09-06T15:52:50.276Z,49.47
2018-09-06T15:55:18.794Z,51.70
2018-09-06T15:57:47.328Z,54.27
2018-09-06T16:00:16.299Z,54.17
2018-09-06T16:02:46.063Z,68.10
2018-09-06T16:05:15.126Z,52.90
2018-09-06T16:07:44.855Z,53.73
2018-09-06T16:10:13.344Z,53.37
2018-09-06T16:12:41.791Z,54.07
2018-09-06T16:15:10.398Z,54.03
2018-09-06T16:17:38.924Z,52.00
2018-09-06T16:20:07.659Z,56.80
2018-09-06T16:22:36.123Z,57.17
2018-09-06T16:25:04.620Z,48.53
2018-09-06T16:27:33.098Z,51.50
2018-09-06T16:30:01.724Z,47.87
2018-09-06T16:32:30.256Z,50.73
2018-09-06T16:34:58.733Z,52.77
2018-09-06T16:37:27.160Z,48.57
2018-09-06T16:39:56.633Z,41.20
2018-09-06T16:42:25.510Z,42.07
2018-09-06T16:44:53.929Z,39.77
2018-09-06T16:47:22.354Z,41.37
2018-09-06T16:49:50.784Z,42.17
2018-09-06T16:52:19.439Z,39.47
2018-09-06T16:54:47.879Z,40.50
2018-09-06T16:57:16.380Z,37.70
2018-09-06T16:59:44.869Z,43.97
2018-09-06T17:02:13.340Z,40.50
2018-09-06T17:04:41.870Z,39.80
2018-09-06T17:07:10.303Z,40.20
2018-09-06T17:09:38.741Z,41.10
2018-09-06T17:12:07.186Z,43.23
2018-09-06T17:14:35.731Z,43.27
2018-09-06T17:17:04.195Z,40.30
2018-09-06T17:19:32.728Z,38.23
2018-09-06T17:22:01.221Z,36.90
2018-09-06T17:24:29.660Z,37.17
2018-09-06T17:26:58.236Z,37.97
2018-09-06T17:29:26.680Z,35.50
2018-09-06T17:31:55.249Z,34.43
2018-09-06T17:34:23.658Z,34.73
2018-09-06T17:36:52.124Z,36.83
2018-09-06T17:39:20.630Z,34.67
2018-09-06T17:41:49.047Z,35.90
2018-09-06T17:44:17.508Z,35.23
2018-09-06T17:46:45.936Z,37.33
2018-09-06T17:49:14.360Z,36.83
2018-09-06T17:51:42.881Z,35.43
2018-09-06T17:54:11.276Z,34.37
2018-09-06T17:56:39.781Z,35.93
2018-09-06T17:59:08.427Z,36.27
2018-09-06T18:01:41.315Z,35.27
2018-09-06T18:04:10.057Z,36.87
2018-09-06T18:06:38.649Z,36.83
2018-09-06T18:09:11.652Z,40.47
2018-09-06T18:11:41.143Z,38.90
2018-09-06T18:14:10.266Z,37.80
2018-09-06T18:16:38.821Z,40.40
2018-09-06T18:19:07.359Z,45.80
2018-09-06T18:21:35.841Z,38.17
2018-09-06T18:24:04.382Z,39.93
2018-09-06T18:26:33.049Z,37.20
2018-09-06T18:29:01.589Z,37.77
2018-09-06T18:31:30.036Z,38.07
2018-09-06T18:33:58.473Z,35.73
2018-09-06T18:36:26.972Z,37.13
2018-09-06T18:38:55.475Z,41.07
2018-09-06T18:41:23.912Z,37.60
2018-09-06T18:43:52.448Z,40.60
2018-09-06T18:46:21.019Z,37.43
2018-09-06T18:48:50.149Z,34.40
2018-09-06T18:51:18.759Z,36.60
2018-09-06T18:53:47.281Z,36.40
2018-09-06T18:56:15.841Z,33.90
2018-09-06T18:58:44.248Z,28.67
2018-09-06T19:01:12.774Z,29.90
2018-09-06T19:03:41.253Z,29.17
2018-09-06T19:06:09.872Z,28.47
2018-09-06T19:08:38.428Z,25.87
2018-09-06T19:11:07.368Z,23.83
2018-09-06T19:13:35.825Z,20.87
2018-09-06T19:16:04.299Z,16.20
2018-09-06T19:18:32.770Z,17.63
2018-09-06T19:21:01.265Z,16.97
2018-09-06T19:23:29.748Z,15.07
2018-09-06T19:25:58.410Z,13.40
2018-09-06T19:28:27.005Z,13.07
2018-09-06T19:30:55.492Z,12.63
2018-09-06T19:33:23.909Z,14.67
2018-09-06T19:35:52.352Z,17.30
2018-09-06T19:38:20.817Z,15.63
2018-09-06T19:40:49.644Z,15.03
2018-09-06T19:43:18.365Z,14.33
2018-09-06T19:45:47.032Z,13.23
2018-09-06T19:48:15.468Z,13.53
2018-09-06T19:50:43.940Z,13.40
2018-09-06T19:53:12.520Z,13.33
2018-09-06T19:55:40.951Z,15.20
2018-09-06T19:58:09.384Z,14.83
2018-09-06T20:00:37.840Z,15.00
2018-09-06T20:03:06.302Z,15.93
2018-09-06T20:05:34.729Z,14.60
2018-09-06T20:08:03.233Z,14.73
2018-09-06T20:10:31.917Z,13.97
2018-09-06T20:13:00.379Z,12.20
2018-09-06T20:15:31.041Z,15.20
2018-09-06T20:17:59.519Z,13.37
2018-09-06T20:20:27.934Z,13.57
2018-09-06T20:22:56.436Z,14.63
2018-09-06T20:25:24.874Z,12.60
2018-09-06T20:27:53.402Z,13.10
2018-09-06T20:30:21.864Z,14.07
2018-09-06T20:32:50.391Z,14.70
2018-09-06T20:35:18.821Z,15.63
2018-09-06T20:37:47.309Z,14.47
2018-09-06T20:40:15.784Z,15.23
2018-09-06T20:42:44.284Z,14.20
2018-09-06T20:45:12.912Z,13.50
2018-09-06T20:47:41.676Z,13.70
2018-09-06T20:50:10.157Z,15.70
2018-09-06T20:52:38.685Z,13.80
2018-09-06T20:55:07.427Z,12.87
2018-09-06T20:57:35.912Z,12.00
2018-09-06T21:00:04.839Z,13.53
2018-09-06T21:02:37.914Z,14.13
2018-09-06T21:05:07.860Z,13.53
2018-09-06T21:07:36.309Z,12.03
2018-09-06T21:10:05.316Z,12.93
2018-09-06T21:12:33.801Z,13.10
2018-09-06T21:15:02.604Z,13.83
2018-09-06T21:17:31.064Z,16.10
2018-09-06T21:19:59.558Z,13.73
2018-09-06T21:22:28.210Z,13.87
2018-09-06T21:24:56.737Z,12.17
2018-09-06T21:27:25.197Z,12.83
2018-09-06T21:29:53.715Z,12.70
2018-09-06T21:32:22.163Z,13.10
2018-09-06T21:34:50.701Z,12.87
2018-09-06T21:37:19.530Z,12.93
2018-09-06T21:39:48.378Z,15.37
2018-09-06T21:42:16.916Z,13.47
2018-09-06T21:44:47.729Z,15.80
2018-09-06T21:47:16.231Z,13.40
2018-09-06T21:49:44.657Z,14.10
2018-09-06T21:52:13.071Z,13.90
2018-09-06T21:54:41.498Z,12.87
2018-09-06T21:57:09.907Z,13.23
2018-09-06T21:59:38.333Z,11.47
2018-09-06T22:02:06.829Z,12.60
2018-09-06T22:04:35.276Z,13.43
2018-09-06T22:07:03.706Z,13.00
2018-09-06T22:09:32.177Z,11.37
2018-09-06T22:12:00.545Z,15.70
2018-09-06T22:14:28.966Z,11.17
2018-09-06T22:16:57.396Z,12.80
2018-09-06T22:19:25.800Z,13.03
2018-09-06T22:21:55.164Z,13.27
2018-09-06T22:24:23.810Z,16.13
2018-09-06T22:26:52.336Z,13.33
2018-09-06T22:29:20.830Z,13.80
2018-09-06T22:31:49.269Z,11.60
2018-09-06T22:34:17.696Z,11.73
2018-09-06T22:36:46.092Z,12.57
2018-09-06T22:39:14.528Z,13.40
2018-09-06T22:41:42.951Z,13.50
2018-09-06T22:44:11.353Z,10.80
2018-09-06T22:46:39.811Z,11.57
2018-09-06T22:49:08.250Z,13.47
2018-09-06T22:51:36.656Z,11.73
2018-09-06T22:54:05.214Z,12.27
2018-09-06T22:56:33.609Z,10.30
2018-09-06T22:59:02.062Z,15.07
2018-09-06T23:01:30.480Z,15.97
2018-09-06T23:03:59.135Z,12.63
2018-09-06T23:06:27.620Z,14.17
2018-09-06T23:08:56.175Z,12.50
2018-09-06T23:11:24.613Z,10.30
2018-09-06T23:13:53.010Z,14.00
2018-09-06T23:16:21.624Z,14.27
2018-09-06T23:18:50.047Z,12.27
2018-09-06T23:21:18.468Z,13.13
2018-09-06T23:23:46.911Z,12.17
2018-09-06T23:26:15.376Z,13.30
2018-09-06T23:28:43.840Z,11.50
2018-09-06T23:31:12.235Z,15.17
2018-09-06T23:33:40.675Z,13.53
2018-09-06T23:36:09.223Z,11.83
2018-09-06T23:38:37.889Z,13.37
2018-09-06T23:41:06.564Z,12.47
2018-09-06T23:43:35.303Z,13.40
2018-09-06T23:46:03.832Z,11.33
2018-09-06T23:48:32.239Z,10.80
2018-09-06T23:51:00.651Z,11.97
2018-09-06T23:53:29.464Z,11.23
2018-09-06T23:55:57.835Z,10.40
2018-09-06T23:58:26.279Z,12.03
